Date,TemperatureHighF,TemperatureAvgF,TemperatureLowF,DewpointHighF,DewpointAvgF,DewpointLowF,HumidityHigh,HumidityAvg,HumidityLow,PressureMaxIn,PressureMinIn,WindSpeedMaxMPH,WindSpeedAvgMPH,GustSpeedMaxMPH,PrecipitationSumIn
2013-5-31,82.6,72.6,54.1,54.3,51.2,48.3,77,41,24,30.33,29.65,10,3,14,14.30
2013-6-1,75.9,63.0,49.1,60.5,55.0,46.2,93,72,46,29.74,29.65,12,3,20,0.04
2013-6-2,74.1,62.6,56.5,63.7,58.9,55.1,98,85,63,29.76,29.65,6,2,8,0.19
2013-6-3,79.9,61.6,51.6,66.1,55.6,45.0,98,78,49,29.75,29.62,16,6,24,0.02
2013-6-4,55.0,52.0,49.3,49.0,46.7,44.1,86,77,67,29.97,29.70,16,9,22,0.01
2013-6-5,65.8,57.9,50.0,54.8,50.8,46.5,85,72,58,30.03,29.95,15,7,21,0.00
2013-6-6,68.9,60.5,50.4,56.5,52.6,47.8,88,70,55,29.96,29.82,10,4,15,0.00
2013-6-7,71.6,58.9,45.3,60.5,53.3,43.9,95,78,57,29.82,29.54,7,2,11,0.00
2013-6-8,70.3,60.5,47.3,54.7,50.9,44.1,96,66,35,29.54,29.43,12,4,18,0.00
2013-6-9,74.8,62.3,43.3,51.0,46.9,41.3,90,52,28,29.49,29.38,8,3,11,0.00
2013-6-10,71.4,57.4,45.5,55.3,50.3,42.6,93,73,42,29.38,29.35,16,4,24,0.14
2013-6-11,59.7,52.9,45.7,49.9,44.4,40.8,90,67,43,29.61,29.37,14,6,21,0.01
2013-6-12,57.4,49.0,39.4,46.2,41.9,35.5,95,72,49,29.81,29.54,8,2,14,0.06
2013-6-13,64.9,51.6,32.4,48.7,41.7,30.7,93,64,35,29.78,29.29,11,3,17,0.08
2013-6-14,63.3,55.8,49.5,57.1,53.8,48.2,98,91,74,29.75,28.97,12,3,17,0.26
2013-6-15,67.1,58.5,50.4,57.5,53.4,48.9,95,79,54,29.34,28.97,14,4,20,0.27
2013-6-16,69.4,57.9,45.5,59.4,50.8,44.7,97,73,43,29.37,29.26,9,2,12,0.47
2013-6-17,69.1,57.7,50.2,55.6,51.7,45.3,97,76,51,29.54,29.25,14,4,21,0.13
2013-6-18,64.9,55.8,47.1,48.3,42.7,38.9,86,54,34,29.73,29.48,14,6,19,0.01
2013-6-19,70.3,60.2,40.8,52.4,47.0,39.5,93,56,30,29.82,29.66,12,3,17,0.00
2013-6-20,57.0,53.5,47.3,53.6,50.1,45.9,95,85,65,29.69,29.60,7,3,11,0.27
2013-6-21,69.1,56.9,43.2,58.6,51.8,42.6,98,80,55,29.79,29.62,11,3,14,0.01
2013-6-22,70.5,59.2,50.5,64.1,56.6,49.5,99,89,68,29.62,29.30,16,5,24,0.33
2013-6-24,75.2,75.0,74.8,60.3,59.5,58.7,52,50,49,29.62,29.62,11,11,19,0.00
2013-6-25,80.6,74.9,63.7,61.6,57.2,53.3,70,46,36,29.75,29.66,11,4,15,0.00
2013-6-26,76.8,68.5,58.6,58.5,53.3,49.4,65,50,38,29.93,29.74,13,6,19,16.41
2013-6-27,66.7,61.5,57.2,60.4,56.4,51.4,92,80,50,29.83,29.67,14,6,21,0.17
2013-6-28,70.2,63.3,55.9,63.0,58.9,54.0,99,83,63,29.73,29.62,18,6,24,0.01
2013-6-29,72.1,61.7,53.1,59.1,55.6,52.6,99,77,47,29.75,29.53,9,3,13,0.00
2013-6-30,81.0,65.8,55.6,63.0,57.8,53.8,93,72,42,29.64,29.47,6,2,8,0.00
2013-7-1,71.8,64.3,59.5,63.7,60.2,57.5,94,83,69,29.60,29.33,7,2,9,0.01
2013-7-2,66.0,59.6,55.2,59.7,56.8,53.3,97,88,72,29.44,29.24,14,6,21,0.79
2013-7-3,69.1,61.2,53.1,56.8,52.5,47.7,95,69,41,29.58,29.44,16,7,25,0.01
2013-7-4,67.6,61.2,52.5,57.0,54.6,50.8,93,74,56,29.68,29.57,14,6,20,0.01
2013-7-5,76.5,64.3,56.1,63.5,58.6,53.9,94,78,55,29.72,29.60,14,5,20,0.11
2013-7-6,71.6,64.1,53.4,56.9,50.7,47.4,87,55,38,29.99,29.66,17,8,26,0.12
2013-7-7,80.2,66.9,46.8,60.7,52.2,42.4,90,53,33,29.98,29.80,16,5,21,0.01
2013-7-8,65.7,59.2,51.3,48.2,45.3,41.4,63,51,42,30.55,29.86,20,8,28,0.00
2013-7-9,67.1,59.3,49.3,56.7,50.6,42.8,75,66,58,29.94,29.46,13,5,17,0.00
2013-7-10,65.1,58.7,50.9,53.5,49.9,43.2,87,66,45,29.63,29.45,14,5,22,0.01
2013-7-11,71.4,59.8,45.7,51.2,46.3,40.4,77,54,36,29.69,29.60,14,5,18,0.01
2013-7-12,73.4,61.7,50.2,57.6,50.0,42.6,72,58,46,29.81,29.62,8,4,13,0.00
2013-7-13,79.0,64.9,55.4,62.7,56.4,51.6,87,69,45,29.76,29.44,15,4,24,0.01
2013-7-14,67.5,58.4,50.4,51.5,45.7,43.3,82,56,35,29.50,29.39,14,6,25,0.01
2013-7-15,64.0,55.1,45.1,55.5,48.4,40.9,91,73,52,29.39,29.18,15,4,18,0.28
2013-7-16,64.4,52.4,43.7,57.0,47.2,40.5,91,78,64,29.43,29.16,21,7,30,0.26
2013-7-17,71.2,59.1,50.0,52.3,47.3,44.5,89,59,36,29.56,29.42,15,6,18,0.01
2013-7-18,66.9,59.2,51.6,52.6,49.6,46.6,88,65,41,29.50,29.34,13,5,19,0.01
2013-7-19,67.5,56.7,49.8,56.1,50.1,47.4,93,74,49,29.64,29.33,16,6,24,0.11
2013-7-20,60.8,55.8,51.1,54.7,48.7,44.2,87,71,53,29.67,29.50,11,5,17,0.04
2013-7-21,66.7,59.4,53.6,55.1,48.8,44.8,79,61,45,29.72,29.51,19,9,24,0.01
2013-7-22,67.8,59.1,49.5,50.1,46.3,42.7,72,55,42,29.91,29.73,17,9,25,0.01
2013-7-23,70.9,61.5,52.9,56.5,50.5,44.9,89,60,49,29.88,29.82,17,6,24,0.00
2013-7-24,75.6,65.9,51.8,60.3,55.6,49.2,92,64,48,29.85,29.75,10,3,14,0.00
2013-7-25,79.2,67.6,48.4,62.4,56.6,47.6,96,64,43,29.75,29.63,8,2,11,0.00
2013-7-26,83.3,69.3,50.4,63.3,56.9,48.9,96,61,36,29.70,29.56,9,2,12,0.00
2013-7-27,78.6,65.1,55.8,64.7,57.8,54.1,95,74,37,29.68,29.55,11,4,14,0.77
2013-7-28,82.0,69.7,52.0,66.6,59.5,50.9,96,67,39,29.65,29.56,11,4,16,0.02
2013-7-29,69.3,62.0,56.3,61.9,58.8,56.1,99,87,66,29.65,29.58,15,5,21,0.09
2013-7-30,67.8,62.6,60.4,63.9,61.3,60.0,99,94,81,29.58,29.40,6,2,12,0.12
2013-7-31,73.2,62.7,55.2,63.9,59.5,53.7,99,87,58,29.45,29.21,16,6,27,0.38
2013-8-1,75.7,59.6,52.5,63.6,56.5,52.1,99,88,54,29.52,29.38,5,2,9,0.01
2013-8-2,73.8,63.6,54.7,65.4,59.4,53.8,99,83,67,29.67,29.51,10,3,14,0.00
2013-8-3,77.9,66.0,50.7,65.9,58.7,50.5,99,74,47,29.72,29.65,10,3,14,0.00
2013-8-4,79.2,67.6,54.9,66.2,59.1,52.0,93,70,50,29.67,29.59,11,6,19,0.00
2013-8-5,80.6,68.6,57.2,61.2,57.4,51.5,98,65,30,29.70,29.57,14,5,18,0.00
2013-8-6,79.9,68.9,51.4,62.0,56.4,50.2,96,60,36,29.75,29.62,15,5,23,0.00
2013-8-7,68.9,62.9,57.7,63.7,59.9,55.8,97,88,76,29.68,29.53,8,3,11,0.11
2013-8-8,74.8,63.7,50.9,60.8,54.1,48.5,93,67,39,29.66,29.55,11,4,14,0.01
2013-8-9,70.9,59.0,49.6,57.0,51.7,48.4,94,73,50,29.59,29.53,13,3,19,0.00
2013-8-10,70.3,59.8,51.1,54.0,51.2,49.0,95,69,41,29.66,29.56,9,2,12,0.00
2013-8-11,70.7,57.9,45.3,56.1,51.1,43.8,96,75,44,29.58,29.35,7,1,11,0.00
2013-8-12,66.9,56.7,40.6,56.8,50.7,40.1,98,76,57,29.42,29.27,11,2,14,0.00
2013-8-13,69.4,57.1,48.4,62.4,54.8,48.2,99,90,69,29.44,29.25,8,2,11,0.47
2013-8-14,69.8,59.3,46.2,59.8,54.2,46.0,99,81,55,29.52,29.37,9,3,14,0.01
2013-8-15,68.9,59.7,49.5,57.3,53.5,48.2,94,76,55,29.61,29.39,14,6,18,0.01
2013-8-16,70.3,58.6,44.8,58.2,53.1,44.4,99,79,53,29.67,29.55,9,3,15,0.00
2013-8-17,71.6,61.1,52.3,65.0,58.1,50.1,97,88,62,29.61,29.27,14,5,21,0.35
2013-8-18,72.7,60.6,48.4,61.2,55.7,47.6,99,82,52,29.38,29.28,17,5,25,0.02
2013-8-19,75.4,65.3,52.3,62.4,56.9,48.8,98,71,39,29.51,29.20,11,4,16,0.32
2013-8-20,76.5,61.9,45.7,62.2,54.2,44.9,97,72,45,29.66,29.51,11,3,15,0.02
2013-8-21,72.0,58.2,46.4,55.3,49.4,45.0,96,68,45,29.70,29.61,11,3,19,0.01
2013-8-22,65.3,55.9,48.0,47.5,45.1,42.7,78,60,40,29.90,29.60,14,6,21,0.01
2013-8-23,67.5,54.9,43.0,54.3,46.3,40.3,93,68,43,30.02,29.83,8,3,13,0.00
2013-8-24,77.5,60.8,42.6,57.4,51.0,42.2,99,68,38,29.94,29.82,10,2,14,0.00
2013-8-25,76.3,60.8,46.0,57.9,52.2,44.8,96,71,42,29.92,29.82,5,2,10,0.00
2013-8-26,77.7,61.4,46.8,62.0,53.5,46.1,99,73,45,29.92,29.71,13,4,17,0.00
2013-8-27,79.7,65.4,45.9,60.6,54.1,44.4,94,63,36,29.74,29.55,12,3,17,0.00
2013-9-2,64.2,57.1,53.6,60.1,53.2,51.1,98,84,58,29.56,29.12,12,3,16,0.32
2013-9-3,68.2,57.5,46.2,57.3,51.9,46.0,99,78,55,29.80,29.50,8,2,10,0.01
2013-9-4,69.1,56.4,47.1,53.9,47.8,43.5,90,68,46,29.89,29.73,9,4,14,0.00
2013-9-5,72.3,58.3,45.5,60.7,54.0,44.7,99,83,56,29.85,29.70,15,6,23,0.00
2013-9-6,71.6,62.6,56.3,59.5,56.7,54.5,95,77,53,29.77,29.69,17,7,24,0.00
2013-9-7,73.8,61.1,49.5,59.4,54.5,47.9,95,75,52,29.87,29.67,11,4,15,0.00
2013-9-8,66.6,56.4,48.4,61.3,54.3,47.4,99,91,78,29.93,29.87,8,1,10,0.00
2013-9-9,72.9,58.8,48.2,61.7,54.0,47.6,99,83,46,29.95,29.81,7,2,11,0.00
2013-9-10,68.5,54.3,45.1,60.6,52.2,44.9,99,91,64,29.82,29.68,7,2,11,0.01
2013-9-11,66.9,57.1,48.9,58.2,53.5,47.7,99,85,63,29.68,29.58,12,3,14,0.02
2013-9-12,71.2,55.4,42.4,56.6,50.8,42.2,99,83,50,29.71,29.59,8,2,11,0.02
2013-9-13,68.0,55.6,42.3,57.5,52.1,42.1,99,86,61,29.67,29.62,16,5,21,0.01
2013-9-14,69.8,55.3,42.1,62.6,51.9,41.9,99,87,59,29.68,29.59,14,4,21,0.01
2013-9-15,65.8,57.9,52.5,56.5,52.1,48.0,98,78,44,29.60,29.42,18,6,27,0.00
2013-9-16,62.1,55.8,50.9,53.5,51.6,49.2,93,82,66,29.42,29.28,14,5,21,0.01
2013-9-17,57.6,53.7,49.6,54.3,51.1,49.0,97,88,80,29.42,29.27,9,3,14,0.05
2013-9-18,60.8,56.0,52.0,56.6,53.6,49.9,96,89,80,29.36,29.30,14,5,20,0.01
2013-9-19,57.7,55.7,54.3,56.2,54.8,53.5,99,96,88,29.45,29.36,12,5,28,0.61
2013-9-20,57.0,55.2,54.0,56.8,55.0,53.7,99,99,95,29.50,29.42,8,3,13,10.65
2013-9-21,56.8,52.2,40.8,56.4,51.3,40.6,99,96,85,29.50,29.36,5,2,11,0.18
2013-9-22,56.8,47.3,39.7,47.7,42.9,39.6,99,81,58,29.43,29.22,14,5,20,0.11
2013-9-23,49.3,45.1,39.6,46.5,43.6,36.9,99,92,79,29.56,29.26,14,7,19,0.85
2013-9-24,47.5,40.4,36.3,38.7,35.8,33.8,90,79,51,29.67,29.56,19,8,24,0.04
2013-9-25,47.1,39.5,34.2,36.1,33.4,29.8,87,73,49,29.63,29.50,16,8,21,0.01
2013-9-26,41.7,37.4,33.4,40.8,34.8,29.8,99,87,76,29.50,29.36,14,9,22,0.09
2013-9-27,44.8,42.5,40.6,44.6,41.9,39.7,99,97,93,29.67,29.32,17,8,24,1.79
2013-9-28,47.3,44.1,37.6,44.3,42.1,36.6,99,90,81,29.86,29.66,11,4,15,24.50
2013-9-29,48.0,40.5,32.7,41.4,38.2,32.4,98,89,70,29.87,29.82,9,1,11,0.02
2013-9-30,44.4,39.0,34.3,41.2,37.1,34.2,99,91,77,29.91,29.85,4,1,7,0.01
2013-10-1,47.3,40.4,34.9,42.4,38.3,34.1,98,90,71,29.90,29.78,11,3,14,0.01
2013-10-2,58.6,49.0,40.3,46.9,43.3,37.9,92,76,54,29.90,29.77,10,2,14,0.01
2013-10-3,67.6,48.5,36.0,50.4,42.6,35.0,97,77,42,29.95,29.70,8,2,11,0.00
2013-10-4,53.2,43.6,31.5,45.2,39.3,30.9,99,81,60,29.70,29.38,15,3,21,0.00
2013-10-5,55.0,48.9,43.9,46.9,42.9,38.3,83,74,64,29.45,29.21,12,5,20,0.00
2013-10-6,53.1,49.0,45.0,45.8,42.6,38.4,79,72,58,29.45,29.22,14,6,20,0.00
2013-10-7,60.6,51.5,40.5,49.9,45.7,39.3,97,76,59,29.53,29.23,9,2,13,0.00
2013-10-8,58.1,45.0,33.8,50.9,43.0,33.6,99,91,65,29.61,29.32,8,1,9,0.34
2013-10-9,55.8,48.1,44.1,55.5,47.6,43.9,99,97,91,29.37,28.97,7,2,11,0.19
2013-10-10,51.1,43.5,36.0,45.8,37.6,32.1,93,74,56,29.68,29.08,13,5,18,0.01
2013-10-11,54.0,46.5,41.0,43.1,39.2,34.7,90,69,57,29.87,29.65,15,6,24,0.00
2013-10-12,56.7,51.9,43.9,48.7,46.0,40.8,87,74,67,29.91,29.85,12,6,20,0.00